createdAt,value
2023-01-12T00:00:22.753Z,96399.69
2023-01-12T00:01:26.022Z,96397.19
2023-01-12T00:02:31.602Z,96394.56
2023-01-12T00:03:34.717Z,96389.41
2023-01-12T00:04:40.187Z,96396.28
2023-01-12T00:05:45.584Z,96400.66
2023-01-12T00:06:51.272Z,96391.22
2023-01-12T00:07:53.527Z,96395.66
2023-01-12T00:08:58.530Z,96395.66
2023-01-12T00:10:03.315Z,96400.91
2023-01-12T00:11:05.820Z,96400.03
2023-01-12T00:12:16.964Z,96401.00
2023-01-12T00:13:19.321Z,96401.19
2023-01-12T00:14:24.414Z,96399.53
2023-01-12T00:15:57.734Z,96394.53
2023-01-12T00:17:03.210Z,96398.75
2023-01-12T00:18:05.410Z,96394.56
2023-01-12T00:19:15.636Z,96399.75
2023-01-12T00:20:18.027Z,96388.56
2023-01-12T00:21:25.631Z,96403.13
2023-01-12T00:22:30.536Z,96396.19
2023-01-12T00:23:32.540Z,96401.47
2023-01-12T00:24:39.830Z,96406.41
2023-01-12T00:25:42.261Z,96400.56
2023-01-12T00:26:50.135Z,96399.66
2023-01-12T00:27:55.113Z,96400.38
2023-01-12T00:28:57.480Z,96405.69
2023-01-12T00:30:02.777Z,96418.50
2023-01-12T00:31:08.442Z,96416.53
2023-01-12T00:32:16.844Z,96419.84
2023-01-12T00:33:20.392Z,96413.84
2023-01-12T00:34:27.403Z,96410.44
2023-01-12T00:35:31.210Z,96411.22
2023-01-12T00:36:39.433Z,96404.41
2023-01-12T00:37:41.456Z,96404.41
2023-01-12T00:38:47.033Z,96406.97
2023-01-12T00:40:01.899Z,96409.63
2023-01-12T00:41:05.897Z,96407.91
2023-01-12T00:42:23.350Z,96407.84
2023-01-12T00:43:41.754Z,96409.59
2023-01-12T00:44:59.972Z,96407.91
2023-01-12T00:46:05.942Z,96412.19
2023-01-12T00:47:08.799Z,96413.03
2023-01-12T00:48:15.924Z,96405.25
2023-01-12T00:49:17.950Z,96406.91
2023-01-12T00:50:22.718Z,96412.66
2023-01-12T00:51:25.010Z,96418.53
2023-01-12T00:52:33.096Z,96409.09
2023-01-12T00:53:35.419Z,96407.41
2023-01-12T00:54:41.931Z,96398.84
2023-01-12T00:55:44.083Z,96400.56
2023-01-12T00:56:49.088Z,96403.00
2023-01-12T00:57:54.407Z,96396.13
2023-01-12T00:58:57.116Z,96397.06
2023-01-12T01:00:02.150Z,96397.88
2023-01-12T01:01:06.661Z,96396.94
2023-01-12T01:02:11.925Z,96388.44
2023-01-12T01:03:14.137Z,96389.19
2023-01-12T01:04:19.550Z,96390.13
2023-01-12T01:05:22.389Z,96387.47
2023-01-12T01:06:28.957Z,96389.06
2023-01-12T01:07:35.001Z,96388.16
2023-01-12T01:08:42.616Z,96382.22
2023-01-12T01:09:44.691Z,96385.53
2023-01-12T01:10:49.202Z,96382.69
2023-01-12T01:11:51.652Z,96390.34
2023-01-12T01:12:56.300Z,96388.66
2023-01-12T01:13:59.287Z,96383.50
2023-01-12T01:15:04.393Z,96380.88
2023-01-12T01:16:08.335Z,96375.75
2023-01-12T01:17:13.675Z,96382.66
2023-01-12T01:18:15.973Z,96370.75
2023-01-12T01:19:21.561Z,96371.75
2023-01-12T01:20:24.369Z,96376.06
2023-01-12T01:21:30.147Z,96376.00
2023-01-12T01:22:35.272Z,96382.84
2023-01-12T01:23:41.741Z,96385.44
2023-01-12T01:24:47.538Z,96384.66
2023-01-12T01:25:50.169Z,96385.28
2023-01-12T01:26:54.733Z,96396.47
2023-01-12T01:27:56.936Z,96379.84
2023-01-12T01:29:01.823Z,96396.13
2023-01-12T01:30:04.747Z,96392.81
2023-01-12T01:31:12.128Z,96393.81
2023-01-12T01:32:14.207Z,96385.22
2023-01-12T01:33:18.758Z,96389.56
2023-01-12T01:34:21.160Z,96382.84
2023-01-12T01:35:26.271Z,96374.25
2023-01-12T01:36:28.784Z,96377.41
2023-01-12T01:37:34.330Z,96387.63
2023-01-12T01:38:39.738Z,96384.34
2023-01-12T01:39:44.767Z,96391.31
2023-01-12T01:40:46.875Z,96389.50
2023-01-12T01:41:51.514Z,96388.66
2023-01-12T01:42:53.788Z,96384.44
2023-01-12T01:44:01.699Z,96386.94
2023-01-12T01:45:06.828Z,96389.44
2023-01-12T01:46:17.946Z,96387.75
2023-01-12T01:47:26.371Z,96387.75
2023-01-12T01:48:34.513Z,96394.72
2023-01-12T01:49:41.198Z,96388.44
2023-01-12T01:50:52.465Z,96383.38
2023-01-12T01:51:59.701Z,96388.44
2023-01-12T01:53:08.362Z,96388.50
2023-01-12T01:54:15.722Z,96378.22
2023-01-12T01:55:25.109Z,96393.25
2023-01-12T01:56:31.563Z,96383.88
2023-01-12T01:57:43.406Z,96391.75
2023-01-12T01:58:53.723Z,96385.94
2023-01-12T02:00:00.726Z,96393.66
2023-01-12T02:01:02.947Z,96394.56
2023-01-12T02:02:08.472Z,96398.91
2023-01-12T02:03:11.780Z,96402.28
2023-01-12T02:04:17.392Z,96397.97
2023-01-12T02:05:23.907Z,96403.97
2023-01-12T02:06:32.199Z,96408.31
2023-01-12T02:07:34.551Z,96408.31
2023-01-12T02:08:48.893Z,96401.41
2023-01-12T02:09:53.845Z,96405.56
2023-01-12T02:11:01.115Z,96396.13
2023-01-12T02:12:19.014Z,96397.81
2023-01-12T02:13:36.304Z,96390.84
2023-01-12T02:14:53.342Z,96385.63
2023-01-12T02:16:23.849Z,96387.31
2023-01-12T02:17:48.268Z,96383.97
2023-01-12T02:19:04.815Z,96382.41
2023-01-12T02:20:36.163Z,96376.44
2023-01-12T02:22:17.325Z,96377.34
2023-01-12T02:23:58.580Z,96379.88
2023-01-12T02:25:22.407Z,96385.94
2023-01-12T02:27:02.629Z,96378.00
2023-01-12T02:28:29.297Z,96371.28
2023-01-12T02:30:10.800Z,96373.84
2023-01-12T02:31:46.270Z,96374.59
2023-01-12T02:32:55.496Z,96370.16
2023-01-12T02:34:11.429Z,96370.13
2023-01-12T02:35:22.983Z,96366.59
2023-01-12T02:36:31.536Z,96364.03
2023-01-12T02:37:38.646Z,96365.72
2023-01-12T02:38:53.156Z,96363.84
2023-01-12T02:40:00.192Z,96351.06
2023-01-12T02:41:13.044Z,96351.06
2023-01-12T02:42:39.375Z,96354.56
2023-01-12T02:43:42.852Z,96346.78
2023-01-12T02:44:57.491Z,96357.13
2023-01-12T02:46:05.244Z,96346.78
2023-01-12T02:47:21.427Z,96349.31
2023-01-12T02:48:27.825Z,96341.63
2023-01-12T02:49:40.024Z,96343.22
2023-01-12T02:50:48.382Z,96340.75
2023-01-12T02:51:58.168Z,96333.66
2023-01-12T02:53:11.384Z,96335.50
2023-01-12T02:54:16.169Z,96329.63
2023-01-12T02:55:22.352Z,96334.91
2023-01-12T02:56:34.751Z,96333.31
2023-01-12T02:57:38.026Z,96318.69
2023-01-12T02:58:48.747Z,96325.53
2023-01-12T02:59:52.869Z,96329.06
2023-01-12T03:01:01.426Z,96323.91
2023-01-12T03:02:07.901Z,96322.84
2023-01-12T03:03:17.536Z,96313.41
2023-01-12T03:04:20.950Z,96318.50
2023-01-12T03:05:26.364Z,96312.53
2023-01-12T03:06:42.464Z,96315.13
2023-01-12T03:07:54.120Z,96308.88
2023-01-12T03:08:56.543Z,96308.06
2023-01-12T03:10:08.542Z,96313.34
2023-01-12T03:11:17.355Z,96299.38
2023-01-12T03:12:23.893Z,96310.44
2023-01-12T03:13:32.569Z,96301.94
2023-01-12T03:14:37.765Z,96313.19
2023-01-12T03:15:45.130Z,96308.22
2023-01-12T03:16:47.487Z,96318.50
2023-01-12T03:18:02.979Z,96311.56
2023-01-12T03:19:11.778Z,96302.81
2023-01-12T03:20:24.644Z,96302.75
2023-01-12T03:21:31.325Z,96296.94
2023-01-12T03:22:39.052Z,96294.38
2023-01-12T03:23:45.383Z,96301.06
2023-01-12T03:24:53.844Z,96302.75
2023-01-12T03:25:58.460Z,96302.75
2023-01-12T03:27:07.104Z,96302.66
2023-01-12T03:28:12.398Z,96297.53
2023-01-12T03:29:22.597Z,96298.53
2023-01-12T03:30:31.255Z,96290.09
2023-01-12T03:31:37.518Z,96290.88
2023-01-12T03:32:39.907Z,96289.88
2023-01-12T03:33:47.384Z,96301.72
2023-01-12T03:34:52.747Z,96298.53
2023-01-12T03:36:06.277Z,96307.88
2023-01-12T03:37:17.896Z,96317.13
2023-01-12T03:38:23.899Z,96309.25
2023-01-12T03:39:36.707Z,96309.34
2023-01-12T03:40:44.154Z,96308.53
2023-01-12T03:41:59.443Z,96307.63
2023-01-12T03:43:07.228Z,96304.91
2023-01-12T03:44:22.237Z,96307.53
2023-01-12T03:45:30.938Z,96308.19
2023-01-12T03:46:42.200Z,96307.34
2023-01-12T03:47:44.666Z,96311.66
2023-01-12T03:48:54.833Z,96304.03
2023-01-12T03:50:04.450Z,96303.22
2023-01-12T03:51:14.653Z,96315.31
2023-01-12T03:52:21.154Z,96318.53
2023-01-12T03:53:25.125Z,96302.13
2023-01-12T03:54:32.210Z,96295.25
2023-01-12T03:55:39.637Z,96296.78
2023-01-12T03:56:44.977Z,96301.78
2023-01-12T03:57:51.334Z,96290.66
2023-01-12T03:58:53.680Z,96299.16
2023-01-12T04:00:00.165Z,96303.50
2023-01-12T04:01:02.625Z,96301.81
2023-01-12T04:02:07.715Z,96307.66
2023-01-12T04:03:12.449Z,96292.84
2023-01-12T04:04:17.726Z,96294.56
2023-01-12T04:05:22.820Z,96287.59
2023-01-12T04:06:28.020Z,96296.91
2023-01-12T04:07:30.663Z,96298.69
2023-01-12T04:08:36.221Z,96300.50
2023-01-12T04:09:38.550Z,96305.63
2023-01-12T04:10:43.753Z,96305.53
2023-01-12T04:12:00.838Z,96306.41
2023-01-12T04:13:03.241Z,96304.72
2023-01-12T04:14:08.333Z,96298.84
2023-01-12T04:15:11.323Z,96304.88
2023-01-12T04:16:16.801Z,96298.06
2023-01-12T04:17:25.351Z,96294.69
2023-01-12T04:18:27.517Z,96299.84
2023-01-12T04:19:32.205Z,96299.91
2023-01-12T04:20:37.127Z,96301.75
2023-01-12T04:21:54.584Z,96299.25
2023-01-12T04:22:59.194Z,96309.66
2023-01-12T04:24:01.611Z,96310.56
2023-01-12T04:25:09.543Z,96305.47
2023-01-12T04:26:12.217Z,96307.34
2023-01-12T04:27:17.734Z,96303.78
2023-01-12T04:28:19.919Z,96299.56
2023-01-12T04:29:25.033Z,96308.19
2023-01-12T04:30:28.496Z,96306.47
2023-01-12T04:31:33.724Z,96304.88
2023-01-12T04:32:36.032Z,96291.22
2023-01-12T04:33:40.771Z,96300.56
2023-01-12T04:34:43.250Z,96295.19
2023-01-12T04:35:51.589Z,96296.88
2023-01-12T04:36:56.760Z,96287.56
2023-01-12T04:37:58.987Z,96292.84
2023-01-12T04:39:03.716Z,96286.78
2023-01-12T04:40:07.809Z,96294.41
2023-01-12T04:41:13.251Z,96296.16
2023-01-12T04:42:30.295Z,96296.91
2023-01-12T04:43:34.938Z,96296.97
2023-01-12T04:44:37.010Z,96298.38
2023-01-12T04:45:44.163Z,96293.25
2023-01-12T04:46:46.396Z,96291.31
2023-01-12T04:47:51.893Z,96293.75
2023-01-12T04:48:54.190Z,96296.53
2023-01-12T04:50:00.823Z,96293.09
2023-01-12T04:51:08.971Z,96290.53
2023-01-12T04:52:11.059Z,96292.50
2023-01-12T04:53:17.713Z,96286.53
2023-01-12T04:54:19.952Z,96284.88
2023-01-12T04:55:24.517Z,96290.81
2023-01-12T04:56:26.856Z,96288.28
2023-01-12T04:57:31.891Z,96283.34
2023-01-12T04:58:35.440Z,96275.78
2023-01-12T04:59:40.964Z,96276.69
2023-01-12T05:00:46.439Z,96269.81
2023-01-12T05:01:48.842Z,96268.88
2023-01-12T05:02:55.591Z,96271.66
2023-01-12T05:04:02.966Z,96272.63
2023-01-12T05:05:06.257Z,96271.75
2023-01-12T05:06:15.078Z,96268.38
2023-01-12T05:07:17.614Z,96271.91
2023-01-12T05:08:34.632Z,96273.59
2023-01-12T05:09:51.665Z,96269.38
2023-01-12T05:10:58.306Z,96264.31
2023-01-12T05:12:01.284Z,96275.41
2023-01-12T05:13:06.586Z,96272.88
2023-01-12T05:14:09.061Z,96277.94
2023-01-12T05:15:14.824Z,96272.06
2023-01-12T05:16:21.386Z,96278.88
2023-01-12T05:17:23.619Z,96278.97
2023-01-12T05:18:30.182Z,96278.88
2023-01-12T05:19:36.374Z,96280.66
2023-01-12T05:20:39.831Z,96282.44
2023-01-12T05:21:48.028Z,96279.91
2023-01-12T05:22:51.523Z,96268.78
2023-01-12T05:23:56.831Z,96273.81
2023-01-12T05:24:59.434Z,96272.00
2023-01-12T05:26:05.371Z,96276.06
2023-01-12T05:27:07.846Z,96271.75
2023-01-12T05:28:12.748Z,96272.50
2023-01-12T05:29:15.128Z,96271.56
2023-01-12T05:30:22.046Z,96277.50
2023-01-12T05:31:24.693Z,96265.56
2023-01-12T05:32:29.803Z,96267.97
2023-01-12T05:33:31.932Z,96273.00
2023-01-12T05:34:36.731Z,96266.97
2023-01-12T05:35:38.928Z,96270.47
2023-01-12T05:36:46.761Z,96263.66
2023-01-12T05:37:49.046Z,96267.06
2023-01-12T05:38:54.552Z,96266.03
2023-01-12T05:39:56.897Z,96269.41
2023-01-12T05:41:02.829Z,96262.44
2023-01-12T05:42:20.624Z,96259.91
2023-01-12T05:43:37.781Z,96259.03
2023-01-12T05:44:40.101Z,96265.78
2023-01-12T05:45:44.811Z,96252.16
2023-01-12T05:46:47.054Z,96252.97
2023-01-12T05:48:00.608Z,96248.56
2023-01-12T05:49:02.656Z,96253.09
2023-01-12T05:50:08.352Z,96251.31
2023-01-12T05:51:15.900Z,96250.44
2023-01-12T05:52:21.455Z,96247.13
2023-01-12T05:53:27.192Z,96246.03
2023-01-12T05:54:29.840Z,96253.72
2023-01-12T05:55:36.019Z,96252.81
2023-01-12T05:56:38.351Z,96246.63
2023-01-12T05:57:43.047Z,96249.94
2023-01-12T05:58:49.568Z,96246.44
2023-01-12T05:59:54.631Z,96230.00
2023-01-12T06:00:56.854Z,96238.47
2023-01-12T06:02:01.549Z,96239.28
2023-01-12T06:03:03.828Z,96237.53
2023-01-12T06:04:09.440Z,96247.97
2023-01-12T06:05:11.789Z,96239.28
2023-01-12T06:06:17.013Z,96234.84
2023-01-12T06:07:21.813Z,96231.38
2023-01-12T06:08:26.926Z,96235.56
2023-01-12T06:09:29.292Z,96240.69
2023-01-12T06:10:34.794Z,96246.59
2023-01-12T06:11:51.944Z,96248.25
2023-01-12T06:13:09.730Z,96238.06
2023-01-12T06:14:12.036Z,96238.06
2023-01-12T06:15:17.632Z,96236.31
2023-01-12T06:16:20.274Z,96226.94
2023-01-12T06:17:28.319Z,96237.03
2023-01-12T06:18:33.447Z,96221.66
2023-01-12T06:19:39.509Z,96231.94
2023-01-12T06:20:41.651Z,96232.72
2023-01-12T06:21:46.687Z,96224.06
2023-01-12T06:22:51.818Z,96224.88
2023-01-12T06:23:56.577Z,96229.19
2023-01-12T06:24:58.675Z,96225.91
2023-01-12T06:26:04.484Z,96221.41
2023-01-12T06:27:06.574Z,96221.59
2023-01-12T06:28:11.639Z,96218.88
2023-01-12T06:29:14.242Z,96224.97
2023-01-12T06:30:19.697Z,96209.53
2023-01-12T06:31:22.113Z,96219.53
2023-01-12T06:32:27.157Z,96216.88
2023-01-12T06:33:29.653Z,96212.81
2023-01-12T06:34:35.987Z,96217.97
2023-01-12T06:35:38.284Z,96200.88
2023-01-12T06:36:44.225Z,96210.34
2023-01-12T06:37:46.273Z,96212.00
2023-01-12T06:38:56.266Z,96221.50
2023-01-12T06:39:58.475Z,96212.75
2023-01-12T06:41:06.841Z,96207.56
2023-01-12T06:42:24.139Z,96220.53
2023-01-12T06:43:26.139Z,96215.19
2023-01-12T06:44:31.698Z,96212.63
2023-01-12T06:45:33.792Z,96214.34
2023-01-12T06:46:39.897Z,96208.38
2023-01-12T06:47:46.159Z,96214.03
2023-01-12T06:48:51.907Z,96211.50
2023-01-12T06:49:54.581Z,96199.63
2023-01-12T06:51:05.369Z,96212.50
2023-01-12T06:52:07.841Z,96206.53
2023-01-12T06:53:12.869Z,96212.00
2023-01-12T06:54:18.802Z,96210.28
2023-01-12T06:55:24.296Z,96204.09
2023-01-12T06:56:26.543Z,96209.34
2023-01-12T06:57:31.280Z,96205.97
2023-01-12T06:58:33.617Z,96219.81
2023-01-12T06:59:42.381Z,96213.84
2023-01-12T07:00:45.424Z,96218.16
2023-01-12T07:01:50.849Z,96209.53
2023-01-12T07:02:56.231Z,96212.94
2023-01-12T07:03:58.303Z,96219.59
2023-01-12T07:05:03.960Z,96221.41
2023-01-12T07:06:06.967Z,96205.81
2023-01-12T07:07:13.856Z,96205.88
2023-01-12T07:08:19.632Z,96212.63
2023-01-12T07:09:27.483Z,96213.44
2023-01-12T07:10:29.725Z,96202.41
2023-01-12T07:11:35.611Z,96212.41
2023-01-12T07:12:38.036Z,96209.09
2023-01-12T07:13:43.537Z,96212.72
2023-01-12T07:14:46.076Z,96211.91
2023-01-12T07:15:51.587Z,96203.38
2023-01-12T07:16:54.091Z,96218.81
2023-01-12T07:17:59.881Z,96201.63
2023-01-12T07:19:02.238Z,96215.47
2023-01-12T07:20:08.228Z,96205.22
2023-01-12T07:21:14.328Z,96209.34
2023-01-12T07:22:19.641Z,96200.66
2023-01-12T07:23:22.008Z,96210.06
2023-01-12T07:24:30.159Z,96205.88
2023-01-12T07:25:32.676Z,96213.50
2023-01-12T07:26:38.052Z,96193.88
2023-01-12T07:27:43.327Z,96205.88
2023-01-12T07:28:45.824Z,96193.78
2023-01-12T07:29:51.723Z,96200.56
2023-01-12T07:30:59.386Z,96207.56
2023-01-12T07:32:04.650Z,96200.66
2023-01-12T07:33:07.854Z,96189.34
2023-01-12T07:34:15.668Z,96197.91
2023-01-12T07:35:18.524Z,96199.78
2023-01-12T07:36:26.111Z,96198.94
2023-01-12T07:37:28.658Z,96196.25
2023-01-12T07:38:34.789Z,96190.06
2023-01-12T07:39:42.291Z,96198.72
2023-01-12T07:40:47.639Z,96196.03
2023-01-12T07:42:05.076Z,96200.25
2023-01-12T07:43:13.871Z,96202.75
2023-01-12T07:44:16.158Z,96200.94
2023-01-12T07:45:23.806Z,96200.28
2023-01-12T07:46:26.033Z,96203.72
2023-01-12T07:47:32.364Z,96204.41
2023-01-12T07:48:35.283Z,96207.84
2023-01-12T07:49:40.583Z,96210.25
2023-01-12T07:50:42.919Z,96216.22
2023-01-12T07:51:48.084Z,96207.63
2023-01-12T07:52:50.533Z,96207.69
2023-01-12T07:53:55.437Z,96212.69
2023-01-12T07:55:03.707Z,96200.44
2023-01-12T07:56:06.415Z,96204.81
2023-01-12T07:57:13.515Z,96198.81
2023-01-12T07:58:21.484Z,96209.88
2023-01-12T07:59:24.061Z,96204.72
2023-01-12T08:00:30.810Z,96197.09
2023-01-12T08:01:33.197Z,96201.38
2023-01-12T08:02:38.876Z,96207.53
2023-01-12T08:03:41.526Z,96196.09
2023-01-12T08:04:46.879Z,96199.19
2023-01-12T08:05:49.463Z,96205.34
2023-01-12T08:06:55.527Z,96194.13
2023-01-12T08:08:03.214Z,96205.31
2023-01-12T08:09:06.161Z,96200.31
2023-01-12T08:10:16.204Z,96208.94
2023-01-12T08:11:23.234Z,96216.59
2023-01-12T08:12:29.207Z,96206.19
2023-01-12T08:13:31.879Z,96204.63
2023-01-12T08:14:40.289Z,96205.34
2023-01-12T08:15:46.484Z,96204.34
2023-01-12T08:16:53.615Z,96198.22
2023-01-12T08:18:03.859Z,96193.91
2023-01-12T08:19:25.968Z,96198.25
2023-01-12T08:20:35.614Z,96186.16
2023-01-12T08:21:46.316Z,96184.19
2023-01-12T08:22:56.031Z,96173.78
2023-01-12T08:24:04.805Z,96180.69
2023-01-12T08:25:18.068Z,96180.59
2023-01-12T08:26:24.813Z,96179.94
2023-01-12T08:27:35.545Z,96185.09
2023-01-12T08:28:44.227Z,96181.63
2023-01-12T08:29:54.765Z,96184.88
2023-01-12T08:31:00.483Z,96190.16
2023-01-12T08:32:06.150Z,96187.34
2023-01-12T08:33:12.038Z,96188.09
2023-01-12T08:34:17.451Z,96191.59
2023-01-12T08:35:27.503Z,96199.28
2023-01-12T08:36:32.953Z,96189.72
2023-01-12T08:37:39.828Z,96199.19
2023-01-12T08:38:45.523Z,96198.19
2023-01-12T08:39:51.373Z,96191.34
2023-01-12T08:41:11.983Z,96193.69
2023-01-12T08:42:19.683Z,96188.31
2023-01-12T08:43:39.705Z,96193.41
2023-01-12T08:44:45.239Z,96182.94
2023-01-12T08:45:48.000Z,96188.78
2023-01-12T08:46:55.424Z,96185.34
2023-01-12T08:47:57.971Z,96184.53
2023-01-12T08:49:03.687Z,96188.78
2023-01-12T08:50:16.178Z,96186.03
2023-01-12T08:51:18.618Z,96181.84
2023-01-12T08:52:26.153Z,96180.81
2023-01-12T08:53:28.370Z,96178.13
2023-01-12T08:54:34.995Z,96160.97
2023-01-12T08:55:37.534Z,96171.19
2023-01-12T08:56:49.467Z,96171.91
2023-01-12T08:57:51.874Z,96168.25
2023-01-12T08:58:57.415Z,96169.06
2023-01-12T09:00:02.671Z,96165.66
2023-01-12T09:01:09.825Z,96169.78
2023-01-12T09:02:15.883Z,96165.44
2023-01-12T09:03:18.159Z,96173.25
2023-01-12T09:04:24.667Z,96167.28
2023-01-12T09:05:27.528Z,96161.88
2023-01-12T09:06:35.941Z,96167.75
2023-01-12T09:07:43.726Z,96159.91
2023-01-12T09:08:47.066Z,96158.19
2023-01-12T09:09:52.726Z,96163.50
2023-01-12T09:11:02.874Z,96155.06
2023-01-12T09:12:11.689Z,96163.66
2023-01-12T09:13:15.994Z,96162.00
2023-01-12T09:14:22.767Z,96162.00
2023-01-12T09:15:25.036Z,96163.66
2023-01-12T09:16:33.038Z,96164.50
2023-01-12T09:17:38.449Z,96166.22
2023-01-12T09:18:46.442Z,96165.19
2023-01-12T09:19:52.195Z,96159.03
2023-01-12T09:21:01.854Z,96149.22
2023-01-12T09:22:07.017Z,96160.56
2023-01-12T09:23:09.604Z,96154.59
2023-01-12T09:24:18.222Z,96152.72
2023-01-12T09:25:23.256Z,96168.88
2023-01-12T09:26:31.965Z,96137.91
2023-01-12T09:27:41.316Z,96151.75
2023-01-12T09:28:44.836Z,96161.88
2023-01-12T09:29:50.215Z,96163.63
2023-01-12T09:30:52.438Z,96169.63
2023-01-12T09:31:58.875Z,96172.88
2023-01-12T09:33:01.363Z,96165.25
2023-01-12T09:34:07.176Z,96179.94
2023-01-12T09:35:13.300Z,96169.69
2023-01-12T09:36:21.336Z,96165.38
2023-01-12T09:37:23.904Z,96181.88
2023-01-12T09:38:30.294Z,96179.94
2023-01-12T09:39:35.804Z,96182.31
2023-01-12T09:40:44.090Z,96194.31
2023-01-12T09:42:03.996Z,96173.72
2023-01-12T09:43:29.279Z,96189.09
2023-01-12T09:44:50.870Z,96191.19
2023-01-12T09:46:08.294Z,96190.06
2023-01-12T09:47:21.647Z,96186.75
2023-01-12T09:48:25.881Z,96198.91
2023-01-12T09:49:37.053Z,96188.47
2023-01-12T09:50:47.486Z,96198.97
2023-01-12T09:51:59.012Z,96185.09
2023-01-12T09:53:09.003Z,96202.28
2023-01-12T09:54:11.669Z,96198.69
2023-01-12T09:55:20.727Z,96178.03
2023-01-12T09:56:29.931Z,96185.09
2023-01-12T09:58:01.256Z,96198.69
2023-01-12T09:59:23.955Z,96183.44
2023-01-12T10:00:30.140Z,96190.16
2023-01-12T10:01:41.585Z,96184.22
2023-01-12T10:02:52.363Z,96179.84
2023-01-12T10:03:57.659Z,96177.09
2023-01-12T10:05:03.199Z,96177.38
2023-01-12T10:06:14.203Z,96186.81
2023-01-12T10:07:22.460Z,96184.13
2023-01-12T10:08:31.324Z,96176.38
2023-01-12T10:09:39.280Z,96170.25
2023-01-12T10:10:50.329Z,96173.59
2023-01-12T10:12:04.958Z,96178.72
2023-01-12T10:13:14.577Z,96170.06
2023-01-12T10:14:57.987Z,96166.53
2023-01-12T10:16:15.101Z,96168.81
2023-01-12T10:17:38.551Z,96167.69
2023-01-12T10:18:51.323Z,96164.91
2023-01-12T10:20:06.545Z,96158.13
2023-01-12T10:21:15.077Z,96175.09
2023-01-12T10:22:37.904Z,96171.53
2023-01-12T10:23:42.749Z,96155.00
2023-01-12T10:24:47.886Z,96160.97
2023-01-12T10:25:54.964Z,96159.34
2023-01-12T10:27:01.329Z,96149.97
2023-01-12T10:28:10.838Z,96161.09
2023-01-12T10:29:13.913Z,96165.56
2023-01-12T10:30:22.158Z,96187.69
2023-01-12T10:31:30.302Z,96150.25
2023-01-12T10:32:41.478Z,96138.53
2023-01-12T10:34:07.576Z,96144.22
2023-01-12T10:35:37.888Z,96135.69
2023-01-12T10:36:48.200Z,96135.81
2023-01-12T10:37:57.700Z,96120.75
2023-01-12T10:39:04.958Z,96130.06
2023-01-12T10:40:30.754Z,96132.31
2023-01-12T10:41:38.605Z,96134.03
2023-01-12T10:43:12.327Z,96135.94
2023-01-12T10:44:24.597Z,96131.72
2023-01-12T10:45:30.413Z,96133.16
2023-01-12T10:46:40.088Z,96147.69
2023-01-12T10:48:05.481Z,96132.94
2023-01-12T10:49:22.936Z,96125.31
2023-01-12T10:50:36.708Z,96133.78
2023-01-12T10:51:55.026Z,96133.81
2023-01-12T10:53:05.973Z,96126.41
2023-01-12T10:54:18.360Z,96125.13
2023-01-12T10:55:22.441Z,96135.44
2023-01-12T10:56:36.854Z,96125.72
2023-01-12T10:57:44.827Z,96127.78
2023-01-12T10:58:56.489Z,96133.66
2023-01-12T11:00:03.261Z,96136.41
2023-01-12T11:01:07.555Z,96124.28
2023-01-12T11:02:20.782Z,96134.00
2023-01-12T11:03:39.801Z,96141.22
2023-01-12T11:04:46.888Z,96116.91
2023-01-12T11:05:49.864Z,96131.72
2023-01-12T11:07:06.689Z,96135.09
2023-01-12T11:08:27.691Z,96146.25
2023-01-12T11:09:35.699Z,96131.72
2023-01-12T11:10:38.957Z,96139.53
2023-01-12T11:11:45.274Z,96127.03
2023-01-12T11:12:59.404Z,96133.81
2023-01-12T11:14:10.327Z,96130.53
2023-01-12T11:15:23.215Z,96140.22
2023-01-12T11:16:26.561Z,96124.84
2023-01-12T11:18:01.533Z,96135.91
2023-01-12T11:19:21.946Z,96122.25
2023-01-12T11:20:44.552Z,96108.00
2023-01-12T11:30:08.390Z,96082.69
2023-01-12T11:31:01.953Z,96103.44
2023-01-12T11:31:25.401Z,96100.91
2023-01-12T11:32:42.439Z,96086.16
2023-01-12T11:33:55.094Z,96085.06
2023-01-12T11:35:00.421Z,96086.75
2023-01-12T11:36:10.118Z,96079.28
2023-01-12T11:37:14.266Z,96079.97
2023-01-12T11:38:22.762Z,96066.44
2023-01-12T11:39:30.976Z,96074.78
2023-01-12T11:40:38.695Z,96065.38
2023-01-12T11:42:06.258Z,96079.13
2023-01-12T11:43:36.126Z,96076.50
2023-01-12T11:44:47.703Z,96082.38
2023-01-12T11:45:56.661Z,96074.41
2023-01-12T11:47:09.395Z,96073.94
2023-01-12T11:48:20.730Z,96090.25
2023-01-12T11:49:40.406Z,96087.72
2023-01-12T11:50:49.043Z,96081.78
2023-01-12T11:51:57.247Z,96085.84
2023-01-12T11:53:06.716Z,96080.50
2023-01-12T11:54:18.049Z,96082.75
2023-01-12T11:55:30.413Z,96078.81
2023-01-12T11:57:04.993Z,96082.16
2023-01-12T11:58:18.359Z,96092.63
2023-01-12T11:59:31.566Z,96085.09
2023-01-12T12:01:19.726Z,96071.91
2023-01-12T12:05:11.931Z,96077.69
2023-01-12T12:06:39.434Z,96074.03
2023-01-12T12:08:04.248Z,96058.34
2023-01-12T12:09:47.573Z,96059.66
2023-01-12T12:10:56.619Z,96054.00
2023-01-12T12:12:07.487Z,96053.66
2023-01-12T12:14:02.653Z,96061.75
2023-01-12T12:15:53.730Z,96050.41
2023-01-12T12:17:21.129Z,96044.19
2023-01-12T12:18:48.762Z,96040.66
2023-01-12T12:20:18.528Z,96052.16
2023-01-12T12:22:12.564Z,96044.19
2023-01-12T12:24:10.148Z,96052.31
2023-01-12T12:27:32.039Z,96051.81
2023-01-12T12:29:02.856Z,96033.47
2023-01-12T12:30:36.469Z,96027.88
2023-01-12T12:32:22.828Z,96038.75
2023-01-12T12:35:06.032Z,96041.09
2023-01-12T12:36:42.459Z,96038.53
2023-01-12T12:38:17.092Z,96043.97
2023-01-12T12:39:38.515Z,96037.84
2023-01-12T12:41:18.086Z,96047.41
2023-01-12T12:43:43.247Z,96052.31
2023-01-12T12:45:27.758Z,96032.69
2023-01-12T12:46:45.510Z,96025.56
2023-01-12T12:48:02.296Z,96016.47
2023-01-12T12:49:09.418Z,96026.47
2023-01-12T12:50:23.890Z,96006.56
2023-01-12T12:51:31.485Z,96020.69
2023-01-12T12:52:34.995Z,96025.22
2023-01-12T12:53:49.903Z,96016.19
2023-01-12T12:54:58.404Z,96006.44
2023-01-12T12:56:07.384Z,96012.16
2023-01-12T12:57:12.909Z,96008.09
2023-01-12T12:58:35.873Z,96017.53
2023-01-12T13:00:00.318Z,96003.06
2023-01-12T13:01:47.415Z,96012.03
2023-01-12T13:03:00.560Z,96027.09
2023-01-12T13:04:07.510Z,96016.91
2023-01-12T13:05:13.803Z,96007.56
2023-01-12T13:06:22.031Z,96019.41
2023-01-12T13:07:28.856Z,96025.91
2023-01-12T13:08:38.576Z,96030.19
2023-01-12T13:09:46.793Z,96012.13
2023-01-12T13:10:53.251Z,96030.09
2023-01-12T13:12:20.740Z,96021.81
2023-01-12T13:13:32.272Z,96031.03
2023-01-12T13:14:36.446Z,96033.41
2023-01-12T13:15:43.085Z,96028.09
2023-01-12T13:16:55.052Z,96023.91
2023-01-12T13:17:57.483Z,96016.09
2023-01-12T13:19:16.291Z,96007.59
2023-01-12T13:20:55.983Z,96007.69
2023-01-12T13:22:20.461Z,96013.31
2023-01-12T13:23:42.536Z,96025.56
2023-01-12T13:24:50.571Z,96020.72
2023-01-12T13:25:57.362Z,96020.88
2023-01-12T13:27:02.618Z,96026.13
2023-01-12T13:28:22.090Z,96019.56
2023-01-12T13:30:06.201Z,96007.16
2023-01-12T13:31:38.683Z,96032.78
2023-01-12T13:33:02.251Z,96009.47
2023-01-12T13:34:46.855Z,96010.94
2023-01-12T13:37:59.396Z,96024.94
2023-01-12T13:39:16.970Z,96011.59
2023-01-12T13:40:33.991Z,96012.28
2023-01-12T13:41:54.690Z,96016.63
2023-01-12T13:43:14.318Z,96004.69
2023-01-12T13:44:28.473Z,96016.78
2023-01-12T13:45:35.282Z,96014.81
2023-01-12T13:46:46.550Z,96027.53
2023-01-12T13:47:57.437Z,96007.53
2023-01-12T13:49:01.074Z,96024.09
2023-01-12T13:50:07.310Z,96013.69